Time;durP1;ratioP1;P1;durP2;ratioP2;P2;SDS_P1;SDS_P2;PMS_P1;PMS_P2;Temp;Humidity;BMP_temperature;BMP_pressure;BME280_temperature;BME280_humidity;BME280_pressure;Samples;Min_cycle;Max_cycle;Signal;HPM_P1;HPM_P2
2022/08/17 03:31:33;;;;;;;;;;;;;;;;;;;;;
2022/08/17 03:34:06;;;;;;;3.15;1.50;;;;;;;23.90;44.69;93004.97;4816970;29;20045;-94
2022/08/17 03:36:37;;;;;;;1.90;1.60;;;;;;;23.92;44.34;93001.66;5056804;23;20356;-94
2022/08/17 03:39:03;;;;;;;3.25;1.60;;;;;;;23.91;44.73;92997.41;4883988;29;20074;-94
2022/08/17 03:45:00;;;;;;;3.30;1.60;;;;;;;23.91;44.76;93005.69;5096278;23;20054;-95
2022/08/17 04:19:54;;;;;;;;;;;;;;;;;;;;;
2022/08/17 04:23:01;;;;;;;5.68;3.00;;;;;;;23.24;43.34;93002.47;4865482;29;20107;-95
2022/08/17 04:25:48;;;;;;;4.95;2.92;;;;;;;23.13;43.70;93006.34;4934200;29;20039;-95
2022/08/17 04:28:15;;;;;;;21.55;6.32;;;;;;;22.91;44.46;93001.56;4903245;23;20063;-91
2022/08/17 04:30:41;;;;;;;45.40;8.55;;;;;;;22.75;44.93;92998.00;4904929;29;20493;-91
2022/08/17 04:33:12;;;;;;;95.18;36.83;;;;;;;22.54;45.42;92994.69;4888755;29;20083;-94
2022/08/17 04:35:57;;;;;;;42.28;32.92;;;;;;;22.71;45.34;93007.97;4906121;29;20119;-95
2022/08/17 04:38:28;;;;;;;11.25;4.50;;;;;;;22.51;45.68;93004.06;4950726;23;20063;-93
2022/08/17 04:43:39;;;;;;;8.82;4.93;;;;;;;22.66;45.29;93001.31;4910049;29;20068;-94
2022/08/17 04:46:15;;;;;;;7.28;3.95;;;;;;;22.66;45.50;93004.09;4889626;29;20028;-92
2022/08/17 04:48:47;;;;;;;5.22;3.35;;;;;;;22.57;45.85;93018.38;4910304;29;20039;-90
2022/08/17 04:51:14;;;;;;;12.00;5.55;;;;;;;22.58;45.81;93009.56;4888021;29;20078;-91
2022/08/17 04:53:42;;;;;;;18.13;6.00;;;;;;;22.54;46.31;93005.69;4916361;29;20047;-95
2022/08/17 04:56:14;;;;;;;33.42;16.83;;;;;;;22.47;46.83;93009.19;4893355;29;20118;-94
2022/08/17 04:58:43;;;;;;;12.95;5.55;;;;;;;22.37;47.13;93022.75;4889929;29;20070;-92
2022/08/17 05:01:17;;;;;;;18.13;8.32;;;;;;;22.44;46.57;93021.28;4891358;29;20040;-93
2022/08/17 05:03:48;;;;;;;24.20;6.78;;;;;;;22.49;46.38;93015.63;4899868;29;20471;-92
2022/08/17 05:06:14;;;;;;;9.85;4.57;;;;;;;22.51;46.78;93026.09;4902282;29;20071;-90
2022/08/17 05:08:42;;;;;;;20.25;7.03;;;;;;;22.44;46.55;93016.53;4919147;29;20047;-94
2022/08/17 05:11:14;;;;;;;11.55;4.35;;;;;;;22.41;46.65;93020.38;4911145;29;20035;-93
2022/08/17 05:13:40;;;;;;;8.10;3.55;;;;;;;22.36;46.61;93013.00;4924622;23;20044;-93
2022/08/17 05:16:10;;;;;;;11.35;4.13;;;;;;;22.41;46.19;93009.34;4891078;29;20047;-93
2022/08/17 05:18:40;;;;;;;6.38;3.55;;;;;;;22.47;45.81;93004.41;4936009;29;20028;-93
2022/08/17 05:21:10;;;;;;;6.72;4.47;;;;;;;22.53;45.52;93006.97;4948654;29;20095;-93
2022/08/17 05:23:47;;;;;;;7.95;3.83;;;;;;;22.55;46.46;93007.91;4926304;29;20052;-93
2022/08/17 05:26:36;;;;;;;13.40;4.57;;;;;;;22.51;46.13;93015.06;4879363;29;20528;-95
2022/08/17 05:29:03;;;;;;;5.78;4.25;;;;;;;22.54;45.81;93019.47;4903940;29;20059;-91
2022/08/17 05:31:29;;;;;;;12.48;6.28;;;;;;;22.63;46.00;93016.19;4910375;29;20036;-91
2022/08/17 05:33:55;;;;;;;15.20;5.30;;;;;;;22.72;45.75;93010.16;4894450;29;20047;-90
2022/08/17 05:36:21;;;;;;;10.27;4.40;;;;;;;22.71;45.22;93016.22;4886678;29;20050;-91
2022/08/17 05:38:47;;;;;;;15.55;7.47;;;;;;;22.79;45.53;93017.72;4882050;29;20047;-92
2022/08/17 05:41:13;;;;;;;19.60;8.20;;;;;;;22.83;45.40;93009.09;4884327;29;20179;-93
2022/08/17 05:44:19;;;;;;;68.68;26.38;;;;;;;22.90;45.78;93022.16;4878146;29;20165;-95
2022/08/17 05:47:12;;;;;;;70.50;28.98;;;;;;;23.03;45.59;93015.72;4896921;29;20089;-94
2022/08/17 05:49:40;;;;;;;23.77;11.63;;;;;;;23.11;45.25;93017.19;4891485;29;20394;-94
2022/08/17 05:52:05;;;;;;;19.05;8.43;;;;;;;23.20;45.32;93008.34;4880859;29;20123;-94
2022/08/17 06:01:30;;;;;;;16.33;6.85;;;;;;;23.02;45.59;93011.50;4972176;23;20067;-95
2022/08/17 06:04:20;;;;;;;34.50;13.00;;;;;;;23.02;46.05;93003.22;4906848;29;20431;-95
2022/08/17 06:07:11;;;;;;;30.20;13.20;;;;;;;23.12;45.53;93007.66;4908201;29;20040;-93
2022/08/17 06:09:39;;;;;;;39.05;13.48;;;;;;;23.21;45.84;93015.34;4916340;29;20040;-92
2022/08/17 06:12:20;;;;;;;34.47;14.65;;;;;;;23.32;45.75;93019.78;4941564;29;20060;-92
2022/08/17 06:15:08;;;;;;;26.63;13.85;;;;;;;23.37;45.47;93018.13;4913382;29;20036;-91
2022/08/17 06:17:33;;;;;;;33.83;13.43;;;;;;;23.42;44.76;93017.16;4915362;29;20099;-91
2022/08/17 06:20:05;;;;;;;34.85;14.18;;;;;;;23.51;46.06;93013.88;4921051;28;20498;-94
2022/08/17 06:22:38;;;;;;;27.23;12.63;;;;;;;23.51;45.16;93019.38;4886046;29;20047;-93
2022/08/17 06:25:28;;;;;;;27.33;12.75;;;;;;;23.52;45.25;93012.59;4934039;29;20107;-93
2022/08/17 06:28:01;;;;;;;28.30;11.23;;;;;;;23.50;44.84;93006.88;4932384;29;20040;-92
2022/08/17 06:30:30;;;;;;;26.85;13.48;;;;;;;23.58;45.07;93016.66;4945492;29;20062;-92
2022/08/17 06:33:04;;;;;;;31.42;11.65;;;;;;;23.58;44.85;93016.66;4926269;29;20040;-90
2022/08/17 06:35:50;;;;;;;;;;;;;;;23.62;44.97;93021.03;4936175;29;20025;-93
2022/08/17 06:38:31;;;;;;;18.65;10.70;;;;;;;23.61;45.05;93017.53;4922660;29;19919;-92
2022/08/17 06:41:11;;;;;;;29.05;12.75;;;;;;;23.60;45.01;93016.06;4905327;28;20048;-93
2022/08/17 06:43:46;;;;;;;36.90;13.13;;;;;;;23.58;45.13;93010.38;4907040;29;20041;-92
2022/08/17 06:46:22;;;;;;;33.33;15.18;;;;;;;23.64;45.49;93010.91;4925680;29;20041;-93
2022/08/17 06:49:06;;;;;;;43.67;25.58;;;;;;;23.65;45.51;93020.66;4894751;29;20096;-92
2022/08/17 06:51:39;;;;;;;48.38;23.77;;;;;;;23.65;45.56;93020.66;4936200;23;20494;-93
2022/08/17 06:54:25;;;;;;;43.85;22.20;;;;;;;23.75;45.54;93020.84;4931052;29;20048;-93
2022/08/17 06:57:21;;;;;;;46.55;21.70;;;;;;;23.71;45.51;93028.75;4895147;29;20032;-95
2022/08/17 06:59:57;;;;;;;43.75;20.48;;;;;;;23.75;45.53;93024.34;4889463;29;20142;-95
2022/08/17 07:02:51;;;;;;;41.85;18.38;;;;;;;23.82;45.32;93023.56;4923024;29;20169;-90
2022/08/17 07:05:24;;;;;;;55.63;21.20;;;;;;;23.84;45.79;93023.00;4916022;29;20044;-93
2022/08/17 07:08:00;;;;;;;54.03;26.13;;;;;;;23.86;45.85;93021.16;4920661;29;20032;-90
2022/08/17 07:10:26;;;;;;;93.35;29.88;;;;;;;23.90;45.69;93007.72;4901063;29;20052;-92
2022/08/17 07:12:55;;;;;;;111.65;33.38;;;;;;;23.94;45.68;93018.41;4902575;29;20079;-92
2022/08/17 07:15:29;;;;;;;68.10;28.52;;;;;;;23.92;45.86;93020.97;4881758;29;20188;-93
2022/08/17 07:17:56;;;;;;;123.20;32.70;;;;;;;24.00;45.92;93018.19;4902978;29;20135;-92
2022/08/17 07:20:23;;;;;;;140.82;37.03;;;;;;;23.99;46.38;93023.00;4917252;29;20049;-91
2022/08/17 07:23:16;;;;;;;126.35;36.78;;;;;;;24.01;46.26;93016.91;4934717;29;20046;-92
2022/08/17 07:25:41;;;;;;;89.43;29.58;;;;;;;23.98;46.79;93007.72;4945282;28;20050;-90
2022/08/17 07:28:07;;;;;;;125.28;36.30;;;;;;;24.00;46.81;93013.41;4901655;29;20040;-90
2022/08/17 07:30:38;;;;;;;147.02;41.78;;;;;;;24.04;46.53;93015.78;4884074;29;20044;-91
2022/08/17 07:33:22;;;;;;;111.20;32.05;;;;;;;24.04;46.73;93019.28;4884448;29;20045;-95
2022/08/17 07:35:56;;;;;;;84.53;27.63;;;;;;;24.06;46.96;93024.22;4875279;29;20075;-94
2022/08/17 07:38:57;;;;;;;100.70;28.83;;;;;;;24.09;46.58;93023.13;4860579;29;20052;-94
2022/08/17 07:48:20;;;;;;;99.22;28.77;;;;;;;24.13;46.98;93023.47;4764475;29;20200;-94
2022/08/17 07:51:05;;;;;;;71.03;25.73;;;;;;;24.18;47.20;93019.78;4766885;29;20056;-93
2022/08/17 07:53:31;;;;;;;126.60;50.58;;;;;;;24.14;46.85;93019.44;4741169;29;20059;-92
2022/08/17 07:55:57;;;;;;;159.57;62.92;;;;;;;24.18;46.74;93017.75;4734315;30;20040;-95
2022/08/17 07:58:27;;;;;;;158.32;56.72;;;;;;;24.24;46.90;93023.84;4734349;23;20065;-95
2022/08/17 08:19:11;;;;;;;130.02;54.67;;;;;;;24.32;47.03;93026.56;4912573;29;20059;-93
2022/08/17 08:21:46;;;;;;;144.55;62.90;;;;;;;24.33;46.99;93032.81;4883692;29;20052;-94
2022/08/17 08:24:25;;;;;;;135.00;65.80;;;;;;;24.31;46.94;93036.13;4875898;29;20491;-92
2022/08/17 08:27:16;;;;;;;132.85;65.13;;;;;;;24.29;47.07;93047.00;4905887;29;20119;-91
2022/08/17 08:30:03;;;;;;;117.97;56.10;;;;;;;24.32;47.05;93045.16;4880161;29;20058;-94
2022/08/17 08:32:47;;;;;;;165.07;70.13;;;;;;;24.35;46.94;93044.06;4914719;29;20044;-92
2022/08/17 08:35:22;;;;;;;164.45;58.58;;;;;;;24.34;46.99;93029.50;4905723;29;20111;-93
2022/08/17 08:37:50;;;;;;;155.00;63.05;;;;;;;24.35;46.93;93027.47;4909578;29;20055;-93
2022/08/17 08:40:39;;;;;;;162.10;56.60;;;;;;;24.32;46.87;93036.88;4921088;29;20041;-95
2022/08/17 08:44:04;;;;;;;137.05;55.65;;;;;;;24.34;46.99;93045.34;4937190;23;20043;-94
2022/08/17 08:47:17;;;;;;;97.07;44.15;;;;;;;24.42;46.55;93044.03;4870262;29;20250;-94
2022/08/17 08:50:44;;;;;;;;;;;;;;;;;;;;;
2022/08/17 08:56:43;;;;;;;98.03;43.03;;;;;;;24.38;46.72;93048.47;4899272;29;20424;-94
2022/08/17 08:59:31;;;;;;;89.68;50.75;;;;;;;24.36;46.84;93049.03;4918105;29;20040;-94
2022/08/17 09:02:19;;;;;;;82.07;42.08;;;;;;;24.39;46.67;93034.09;4890143;29;20032;-92
2022/08/17 09:05:07;;;;;;;98.28;44.83;;;;;;;24.43;46.62;93042.00;4905097;29;20050;-94
2022/08/17 09:07:42;;;;;;;98.68;45.42;;;;;;;24.43;46.57;93037.22;4916116;29;20055;-95
2022/08/17 09:10:23;;;;;;;93.28;46.17;;;;;;;24.41;46.51;93034.28;4896537;29;20123;-92
2022/08/17 09:13:13;;;;;;;108.40;56.42;;;;;;;24.46;46.43;93044.38;4897731;29;20064;-93
2022/08/17 09:15:47;;;;;;;141.80;85.28;;;;;;;24.44;46.31;93054.53;4913577;29;20032;-95
2022/08/17 09:18:19;;;;;;;164.40;96.53;;;;;;;24.43;46.31;93048.25;4865337;29;20041;-95
2022/08/17 09:20:56;;;;;;;157.07;92.00;;;;;;;24.48;46.24;93046.56;4926958;28;20408;-94
2022/08/17 09:23:58;;;;;;;138.82;84.05;;;;;;;24.41;46.28;93031.50;4917887;29;20065;-95
2022/08/17 09:26:46;;;;;;;123.88;77.97;;;;;;;24.44;46.18;93030.38;4891506;29;20086;-95
2022/08/17 09:29:33;;;;;;;116.80;69.90;;;;;;;24.51;46.04;93045.44;4916295;29;20112;-95
2022/08/17 09:32:02;;;;;;;119.03;70.22;;;;;;;24.51;46.12;93043.41;4864443;29;20052;-95
2022/08/17 09:35:01;;;;;;;112.25;60.92;;;;;;;24.45;46.15;93044.94;4903924;29;20039;-93
2022/08/17 09:43:23;;;;;;;148.40;64.28;;;;;;;24.52;46.04;93049.69;5093347;23;20044;-94
2022/08/17 09:45:56;;;;;;;124.60;56.28;;;;;;;24.51;45.67;93050.97;4904077;29;20048;-94
2022/08/17 09:48:35;;;;;;;120.47;53.10;;;;;;;24.47;46.16;93045.09;4862282;29;20048;-93
2022/08/17 09:53:33;;;;;;;105.43;55.35;;;;;;;24.48;46.02;93036.25;5326754;23;20075;-94
2022/08/17 09:56:49;;;;;;;100.93;48.92;;;;;;;24.48;45.80;93044.53;4900402;29;20067;-95
2022/08/17 09:59:31;;;;;;;103.07;50.20;;;;;;;24.49;45.97;93042.50;4920349;29;20108;-95
2022/08/17 10:02:53;;;;;;;;;;;;;;;;;;;;;
2022/08/17 10:18:54;;;;;;;71.93;37.30;;;;;;;24.46;45.66;93016.75;5439787;23;20051;-95
2022/08/17 10:27:21;;;;;;;67.85;30.73;;;;;;;24.47;45.52;93022.97;4921868;29;20051;-92
2022/08/17 10:29:53;;;;;;;67.18;31.17;;;;;;;24.45;45.46;93020.81;4889866;29;20041;-93
2022/08/17 10:32:47;;;;;;;54.58;28.60;;;;;;;24.46;45.65;93014.00;4903543;29;20479;-92
2022/08/17 10:35:36;;;;;;;55.88;29.67;;;;;;;24.47;45.62;93020.22;4890038;29;20040;-92
2022/08/17 10:38:29;;;;;;;61.03;28.33;;;;;;;24.46;45.67;93027.06;4908890;29;20111;-92
2022/08/17 10:41:23;;;;;;;48.90;27.95;;;;;;;24.49;45.56;93023.16;4850425;29;20083;-92
2022/08/17 10:44:12;;;;;;;54.83;27.88;;;;;;;24.48;45.68;93027.22;4848465;29;20623;-93
2022/08/17 10:46:44;;;;;;;45.88;25.65;;;;;;;24.51;45.74;93024.06;4849341;29;20049;-93
2022/08/17 10:49:15;;;;;;;37.50;22.58;;;;;;;24.51;45.60;93021.31;4846939;29;20104;-92
2022/08/17 10:51:42;;;;;;;39.55;22.80;;;;;;;24.52;45.43;93020.00;4878199;29;20037;-92
2022/08/17 10:54:23;;;;;;;41.25;22.40;;;;;;;24.53;45.41;93024.25;4846551;29;20052;-92
2022/08/17 10:56:49;;;;;;;;;;;;;;;24.51;45.61;93031.63;4850730;29;20041;-92
2022/08/17 10:59:33;;;;;;;36.92;20.08;;;;;;;24.51;45.49;93029.59;4854441;29;20427;-93
2022/08/17 11:02:17;;;;;;;53.45;28.58;;;;;;;24.58;45.38;93028.84;4858861;29;20149;-92
2022/08/17 11:05:05;;;;;;;69.22;39.00;;;;;;;24.53;45.25;93024.25;4855991;29;20050;-90
2022/08/17 11:07:58;;;;;;;182.98;54.25;;;;;;;24.57;45.30;93018.34;4876324;29;20529;-92
2022/08/17 11:10:42;;;;;;;86.97;32.78;;;;;;;24.54;45.11;93011.91;4876226;29;20045;-91
2022/08/17 11:13:23;;;;;;;99.05;35.45;;;;;;;24.62;44.99;93020.16;4876937;29;20045;-92
2022/08/17 11:15:54;;;;;;;;;;;;;;;24.56;45.16;93025.91;4843442;29;20521;-94
2022/08/17 11:18:20;;;;;;;237.25;90.38;;;;;;;24.65;44.92;93024.56;4867606;29;19938;-93
2022/08/17 11:21:04;;;;;;;241.68;101.88;;;;;;;24.57;45.02;93027.38;4921491;29;20027;-91
2022/08/17 11:24:04;;;;;;;188.57;76.15;;;;;;;24.60;45.01;93025.50;4903339;29;20073;-92
2022/08/17 11:26:32;;;;;;;131.93;69.57;;;;;;;24.65;44.92;93019.03;4901400;29;20058;-93
2022/08/17 11:32:22;;;;;;;157.82;72.05;;;;;;;24.62;44.95;93024.94;4936870;23;20055;-95
2022/08/17 11:35:04;;;;;;;295.70;153.85;;;;;;;24.65;44.78;93026.59;4905143;29;20040;-96
2022/08/17 11:37:51;;;;;;;247.82;113.43;;;;;;;24.65;44.95;93034.88;4908267;29;20044;-95
2022/08/17 11:40:29;;;;;;;155.77;77.78;;;;;;;24.72;44.67;93020.28;4919012;29;20035;-94
2022/08/17 11:43:24;;;;;;;150.70;74.55;;;;;;;24.67;44.82;93026.78;4923367;28;20060;-93
2022/08/17 11:51:32;;;;;;;162.40;82.25;;;;;;;24.64;44.94;93023.09;4889798;29;20045;-95
2022/08/17 11:52:37;;;;;;;173.63;90.28;;;;;;;24.68;44.94;93019.94;4918252;29;20107;-93
2022/08/17 11:55:08;;;;;;;182.77;99.40;;;;;;;24.73;44.72;93025.25;4878537;29;20067;-93
2022/08/17 11:57:39;;;;;;;188.05;99.15;;;;;;;24.77;44.86;93020.06;4871063;29;20048;-92
2022/08/17 12:00:12;;;;;;;167.90;95.53;;;;;;;24.80;44.85;93018.22;4917510;29;20040;-91
2022/08/17 12:03:21;;;;;;;211.07;113.88;;;;;;;24.78;44.88;93012.50;4876498;29;20095;-93
2022/08/17 12:05:47;;;;;;;213.02;121.97;;;;;;;24.77;44.96;93008.28;4879361;29;20043;-93
2022/08/17 12:08:17;;;;;;;243.25;141.43;;;;;;;24.74;44.63;93010.13;4884437;29;20048;-93
2022/08/17 12:11:18;;;;;;;281.83;147.73;;;;;;;24.71;44.90;93002.22;4905239;29;20055;-95
2022/08/17 12:13:50;;;;;;;185.98;106.32;;;;;;;24.71;44.93;93002.97;4904058;29;20044;-94
2022/08/17 12:16:16;;;;;;;181.80;101.00;;;;;;;24.74;44.70;92999.06;4906555;29;20047;-90
2022/08/17 12:18:57;;;;;;;203.38;99.50;;;;;;;24.73;44.96;93002.41;4904170;29;20036;-93
2022/08/17 12:21:23;;;;;;;209.40;103.25;;;;;;;24.76;44.90;93004.03;4896762;29;20058;-91
2022/08/17 12:23:51;;;;;;;205.88;101.38;;;;;;;24.79;44.85;93000.88;4934211;29;20044;-92
2022/08/17 12:26:31;;;;;;;206.10;112.93;;;;;;;24.75;45.11;92997.78;4920514;29;20039;-89
2022/08/17 12:29:10;;;;;;;305.08;136.05;;;;;;;24.78;45.49;93007.72;4885146;29;20566;-93
2022/08/17 12:31:43;;;;;;;211.75;114.88;;;;;;;24.84;45.69;93007.50;4882741;29;20049;-92
2022/08/17 12:34:19;;;;;;;191.63;108.05;;;;;;;24.93;44.67;93006.88;4916059;29;20040;-92
2022/08/17 12:36:46;;;;;;;171.00;100.32;;;;;;;24.98;44.89;93005.94;4914285;29;20038;-93
2022/08/17 12:39:18;;;;;;;163.60;96.10;;;;;;;25.02;45.12;93009.06;4900019;29;20455;-87
2022/08/17 12:41:46;;;;;;;154.20;91.53;;;;;;;24.99;45.18;93015.72;4886633;29;20180;-94
2022/08/17 12:44:23;;;;;;;153.88;88.13;;;;;;;24.99;44.76;93009.44;4907875;29;20095;-93
2022/08/17 12:46:58;;;;;;;154.15;86.70;;;;;;;25.00;45.04;93006.13;4880730;29;20143;-90
2022/08/17 12:49:35;;;;;;;140.10;86.07;;;;;;;25.06;45.04;93012.16;4901278;29;20044;-92
2022/08/17 12:52:29;;;;;;;120.82;77.68;;;;;;;25.05;44.61;93015.50;4906213;29;20046;-93
2022/08/17 12:55:16;;;;;;;174.13;105.25;;;;;;;25.01;44.58;93015.16;4885021;29;20059;-91
2022/08/17 12:57:45;;;;;;;207.27;122.38;;;;;;;24.97;44.54;93012.78;4913498;29;20103;-93
2022/08/17 13:00:26;;;;;;;184.80;100.25;;;;;;;24.89;44.63;93012.06;4883018;29;20048;-93
2022/08/17 13:03:06;;;;;;;187.05;100.65;;;;;;;24.91;44.49;93006.69;4899097;29;20055;-93
2022/08/17 13:05:41;;;;;;;244.40;138.40;;;;;;;24.90;44.71;93017.03;4877895;29;20124;-92
2022/08/17 13:08:19;;;;;;;269.02;143.73;;;;;;;24.89;44.95;93014.84;4879789;29;20032;-91
2022/08/17 13:10:53;;;;;;;239.48;124.20;;;;;;;24.93;44.68;93021.44;4891262;29;20040;-93
2022/08/17 13:13:23;;;;;;;178.25;104.50;;;;;;;24.94;44.50;93022.94;4888649;29;20032;-93
2022/08/17 13:15:56;;;;;;;170.20;105.17;;;;;;;24.96;44.22;93025.13;4884834;29;20531;-92
2022/08/17 13:18:46;;;;;;;165.73;97.80;;;;;;;24.91;44.44;93021.25;4874293;29;20072;-90
2022/08/17 13:21:18;;;;;;;144.73;90.28;;;;;;;24.94;44.39;93017.41;4869433;29;20048;-91
2022/08/17 13:24:08;;;;;;;136.02;83.57;;;;;;;24.94;44.21;93022.94;4931093;29;20091;-95
2022/08/17 13:26:49;;;;;;;137.15;81.05;;;;;;;24.99;44.27;93015.72;4927845;29;20050;-93
2022/08/17 13:29:27;;;;;;;;;;;;;;;24.92;44.38;93010.94;4900046;29;20028;-92
2022/08/17 13:32:17;;;;;;;132.45;76.70;;;;;;;24.90;44.22;93005.97;4913650;29;19997;-94
2022/08/17 13:34:52;;;;;;;121.57;77.85;;;;;;;24.94;44.21;93003.56;4887247;29;20053;-91
2022/08/17 13:37:31;;;;;;;188.10;106.15;;;;;;;24.97;44.22;93010.00;4916753;29;20127;-93
2022/08/17 13:40:08;;;;;;;217.70;121.65;;;;;;;25.02;44.17;93011.09;4914751;29;20138;-92
2022/08/17 13:42:44;;;;;;;235.35;130.50;;;;;;;25.00;44.22;93017.19;4915078;29;20036;-90
2022/08/17 13:45:28;;;;;;;208.75;116.30;;;;;;;24.93;44.22;93006.88;4898516;29;20063;-92
2022/08/17 13:48:15;;;;;;;191.55;106.75;;;;;;;24.92;44.31;93003.38;4901410;29;20075;-91
2022/08/17 13:50:46;;;;;;;176.30;92.93;;;;;;;24.94;44.43;92991.75;4922055;29;20043;-92
2022/08/17 13:53:35;;;;;;;203.10;107.57;;;;;;;24.96;44.42;92996.75;4889116;29;20499;-93
2022/08/17 13:56:06;;;;;;;207.00;106.68;;;;;;;24.96;44.58;92996.75;4925040;29;20040;-93
2022/08/17 13:58:36;;;;;;;200.55;105.35;;;;;;;24.97;44.49;92995.44;4913655;29;20048;-92
2022/08/17 14:01:29;;;;;;;276.67;130.23;;;;;;;24.97;44.44;92989.91;4865492;29;20487;-96
2022/08/17 14:03:58;;;;;;;194.80;107.18;;;;;;;24.98;44.51;92994.88;4946970;23;20048;-93
2022/08/17 14:07:19;;;;;;;209.50;108.53;;;;;;;24.97;44.46;92993.41;4954278;23;20044;-96
2022/08/17 14:09:48;;;;;;;181.02;100.63;;;;;;;25.00;44.42;92989.53;4824881;29;20143;-92
2022/08/17 14:12:17;;;;;;;180.32;97.07;;;;;;;25.00;44.66;92984.00;4827779;29;20405;-93
2022/08/17 14:14:44;;;;;;;163.65;94.82;;;;;;;25.00;44.32;92981.22;4900983;23;20097;-94
2022/08/17 14:17:11;;;;;;;158.55;92.07;;;;;;;24.99;44.57;92984.56;4914998;29;20053;-93
2022/08/17 14:19:36;;;;;;;197.55;105.88;;;;;;;25.04;44.48;92991.91;4878496;29;20040;-92
2022/08/17 14:22:04;;;;;;;217.70;117.53;;;;;;;25.05;44.51;92988.56;4873948;29;20036;-93
2022/08/17 14:30:28;;;;;;;245.73;117.13;;;;;;;25.12;44.44;92978.72;5031245;23;20048;-93
2022/08/17 14:32:56;;;;;;;212.25;103.28;;;;;;;25.17;44.37;92988.84;4957875;23;20071;-93
2022/08/17 14:35:22;;;;;;;162.35;88.05;;;;;;;25.16;45.15;92981.84;5065062;23;20087;-92
2022/08/17 14:37:48;;;;;;;128.02;75.35;;;;;;;25.12;44.21;92975.97;4946552;23;20051;-90
2022/08/17 14:40:14;;;;;;;140.25;75.75;;;;;;;25.18;43.89;92976.47;4924477;29;20040;-91
2022/08/17 14:42:43;;;;;;;138.63;76.95;;;;;;;25.21;43.80;92978.09;4934898;28;20035;-92
2022/08/17 14:45:11;;;;;;;171.82;110.63;;;;;;;25.25;44.07;92976.41;4933151;29;20055;-91
2022/08/17 14:47:38;;;;;;;143.25;87.63;;;;;;;25.28;43.47;92975.28;4946679;23;20040;-92
2022/08/17 14:50:08;;;;;;;143.93;82.90;;;;;;;25.30;43.16;92969.19;4904233;23;20041;-90
2022/08/17 14:52:38;;;;;;;151.10;81.63;;;;;;;25.30;43.48;92974.72;4886096;29;20049;-92
2022/08/17 14:55:05;;;;;;;136.40;80.78;;;;;;;25.35;43.04;92973.72;4870606;29;20041;-91
2022/08/17 14:57:34;;;;;;;152.73;82.68;;;;;;;25.38;43.62;92969.84;4874362;29;20051;-91
2022/08/17 15:00:30;;;;;;;143.17;77.13;;;;;;;25.39;44.14;92976.09;4819939;29;20096;-94
2022/08/17 15:02:58;;;;;;;123.82;72.25;;;;;;;25.43;43.35;92982.69;4801969;29;20070;-93
2022/08/17 15:05:30;;;;;;;121.03;69.20;;;;;;;25.42;43.28;92972.94;4809715;29;20047;-90
2022/08/17 15:07:55;;;;;;;130.65;66.47;;;;;;;25.45;43.20;92982.88;4794946;29;20196;-90
2022/08/17 15:10:23;;;;;;;117.88;64.20;;;;;;;25.44;43.03;92977.91;4797991;23;20082;-90
2022/08/17 15:12:49;;;;;;;123.03;73.93;;;;;;;25.48;43.09;92981.75;4920259;29;20039;-93
2022/08/17 15:15:15;;;;;;;133.40;81.45;;;;;;;25.50;43.06;92983.94;4907454;29;20141;-93
2022/08/17 15:17:42;;;;;;;141.70;78.63;;;;;;;25.46;42.69;92984.34;4880504;29;20103;-94
2022/08/17 15:20:09;;;;;;;134.10;70.75;;;;;;;25.49;42.86;92979.72;4876717;29;20036;-93
2022/08/17 15:22:35;;;;;;;128.60;70.18;;;;;;;25.44;42.93;92970.34;4900016;29;20040;-92
2022/08/17 15:25:10;;;;;;;127.35;63.67;;;;;;;25.42;43.00;92967.41;4900393;29;20044;-92
2022/08/17 15:27:39;;;;;;;110.93;62.90;;;;;;;25.46;43.09;92978.81;4904703;28;20050;-91
2022/08/17 15:30:07;;;;;;;126.45;62.90;;;;;;;25.52;43.04;92976.53;4916261;29;20561;-90
2022/08/17 15:32:33;;;;;;;129.07;64.93;;;;;;;25.49;43.20;92985.97;4896006;29;20047;-90
2022/08/17 15:34:59;;;;;;;153.07;72.20;;;;;;;25.48;43.38;92983.78;4860191;29;20060;-91
2022/08/17 15:37:26;;;;;;;356.67;235.98;;;;;;;25.52;44.40;92981.34;4862829;29;20040;-90
2022/08/17 15:39:52;;;;;;;207.73;107.43;;;;;;;25.54;43.59;92970.44;4878875;29;20054;-93
2022/08/17 15:42:18;;;;;;;242.52;128.95;;;;;;;25.56;44.48;92963.00;4896265;29;20080;-88
2022/08/17 15:44:44;;;;;;;193.05;95.07;;;;;;;25.57;44.02;92960.97;4880873;29;20076;-90
2022/08/17 15:47:10;;;;;;;198.88;90.13;;;;;;;25.58;43.80;92974.25;4880254;29;20543;-90
2022/08/17 15:49:38;;;;;;;268.27;145.05;;;;;;;25.58;43.89;92956.91;4864184;29;20075;-90
2022/08/17 15:52:31;;;;;;;235.40;120.10;;;;;;;25.54;44.63;92962.13;4865536;29;20096;-92
2022/08/17 15:54:59;;;;;;;274.95;140.55;;;;;;;25.57;44.73;92958.22;4857227;29;20851;-88
2022/08/17 15:57:25;;;;;;;215.48;93.97;;;;;;;25.60;43.97;92960.56;4865691;29;20042;-90
2022/08/17 15:59:51;;;;;;;197.13;93.40;;;;;;;25.62;44.63;92954.47;4863052;29;20049;-90
2022/08/17 16:02:25;;;;;;;209.75;94.88;;;;;;;25.60;43.83;92946.00;4818459;29;20037;-91
2022/08/17 16:04:53;;;;;;;191.63;89.70;;;;;;;25.59;43.86;92950.06;4819854;29;20109;-91
2022/08/17 16:07:20;;;;;;;171.60;84.30;;;;;;;25.61;43.31;92950.97;4872983;29;20061;-90
2022/08/17 16:09:49;;;;;;;168.65;85.90;;;;;;;25.56;43.45;92951.19;4861209;29;20124;-91
2022/08/17 16:12:18;;;;;;;153.45;77.72;;;;;;;25.55;43.70;92944.19;4894449;29;20056;-91
2022/08/17 16:15:07;;;;;;;163.32;79.53;;;;;;;25.60;43.37;92946.00;4894934;29;20037;-92
2022/08/17 16:17:45;;;;;;;138.00;74.75;;;;;;;25.55;43.42;92938.66;5026386;23;20048;-89
2022/08/17 16:20:16;;;;;;;149.60;70.93;;;;;;;25.56;43.29;92946.41;4969917;29;20055;-91
2022/08/17 16:22:47;;;;;;;128.95;70.13;;;;;;;25.58;43.65;92943.06;4972281;29;20023;-90
2022/08/17 16:25:37;;;;;;;140.10;72.13;;;;;;;25.51;43.67;92944.63;4936860;29;20382;-92
2022/08/17 16:28:26;;;;;;;123.00;62.28;;;;;;;25.51;43.77;92939.09;4953447;29;20016;-90
2022/08/17 16:31:07;;;;;;;133.30;66.95;;;;;;;25.54;43.76;92943.50;4947262;23;20084;-91
2022/08/17 16:33:50;;;;;;;111.15;62.50;;;;;;;25.57;43.50;92938.84;4894130;23;20059;-91
2022/08/17 16:36:21;;;;;;;127.65;60.47;;;;;;;25.57;43.82;92947.13;4869435;29;20048;-93
2022/08/17 16:38:51;;;;;;;108.45;56.92;;;;;;;25.53;43.85;92950.34;4874085;29;20057;-92
2022/08/17 16:41:44;;;;;;;;;;;;;;;25.45;43.92;92957.97;4890742;29;20123;-92
2022/08/17 16:44:21;;;;;;;98.05;54.03;;;;;;;25.53;43.94;92946.84;4885594;29;19920;-91
2022/08/17 16:46:54;;;;;;;106.22;56.83;;;;;;;25.54;44.05;92949.03;4874026;29;20029;-92
2022/08/17 16:49:22;;;;;;;104.30;54.78;;;;;;;25.53;43.70;92955.88;4914446;23;20041;-91
2022/08/17 16:52:17;;;;;;;104.72;57.22;;;;;;;25.51;43.71;92957.72;4851270;29;20152;-92
2022/08/17 16:54:47;;;;;;;113.55;58.45;;;;;;;25.52;44.21;92973.03;5073848;23;20068;-92
2022/08/17 16:57:24;;;;;;;152.93;65.50;;;;;;;25.50;43.93;92970.84;4885300;29;20036;-93
2022/08/17 17:00:22;;;;;;;160.02;65.20;;;;;;;25.46;44.11;92973.28;4872575;29;20065;-94
2022/08/17 17:03:07;;;;;;;126.55;61.40;;;;;;;25.49;44.24;92966.59;4915944;23;20076;-93
2022/08/17 17:05:56;;;;;;;123.30;59.90;;;;;;;25.49;44.18;92969.38;4874430;29;20041;-92
2022/08/17 17:11:04;;;;;;;116.90;55.50;;;;;;;25.51;44.15;92977.09;5584675;23;20119;-93
2022/08/17 17:13:47;;;;;;;114.03;55.37;;;;;;;25.49;44.23;92976.94;4911768;29;20040;-93
2022/08/17 17:17:16;;;;;;;110.35;56.38;;;;;;;25.46;44.34;92978.81;4890850;29;20064;-93
2022/08/17 17:20:24;;;;;;;97.30;52.45;;;;;;;25.45;44.17;92985.66;4880154;29;20168;-94
2022/08/17 17:23:09;;;;;;;98.70;51.20;;;;;;;25.46;44.45;92978.81;4918354;23;21201;-93
2022/08/17 17:26:02;;;;;;;91.93;49.00;;;;;;;25.49;44.27;92980.44;5137246;23;20040;-93
2022/08/17 17:29:19;;;;;;;94.38;52.17;;;;;;;25.44;44.63;92975.13;4913436;29;20039;-94
2022/08/17 17:34:33;;;;;;;92.38;49.53;;;;;;;25.44;44.36;92981.41;5035145;23;20070;-94
2022/08/17 17:37:14;;;;;;;91.47;49.08;;;;;;;25.43;44.65;92977.16;5177751;23;20051;-93